Time;durP1;ratioP1;P1;durP2;ratioP2;P2;SDS_P1;SDS_P2;PMS_P1;PMS_P2;Temp;Humidity;BMP_temperature;BMP_pressure;BME280_temperature;BME280_humidity;BME280_pressure;Samples;Min_cycle;Max_cycle;Signal;HPM_P1;HPM_P2
2021/09/27 00:01:09;;;;;;;5.00;2.67;;;;;;;10.48;100.00;100247.53;1709623;82;21068;-65
2021/09/27 00:03:35;;;;;;;4.35;2.27;;;;;;;10.64;100.00;100244.41;1711125;82;20939;-67
2021/09/27 00:06:03;;;;;;;3.85;2.10;;;;;;;10.71;100.00;100242.69;1710605;83;21010;-66
2021/09/27 00:08:30;;;;;;;4.62;2.22;;;;;;;10.61;100.00;100243.49;1709004;83;21005;-74
2021/09/27 00:11:01;;;;;;;4.55;2.15;;;;;;;10.48;100.00;100244.94;1709968;83;21112;-66
2021/09/27 00:13:33;;;;;;;4.72;2.22;;;;;;;10.30;100.00;100244.50;1712323;82;20975;-66
2021/09/27 00:15:59;;;;;;;4.45;2.25;;;;;;;10.41;100.00;100241.94;1710582;82;21540;-67
2021/09/27 00:18:26;;;;;;;4.67;2.05;;;;;;;10.41;100.00;100237.53;1709615;83;21017;-76
2021/09/27 00:20:57;;;;;;;5.83;2.05;;;;;;;10.30;100.00;100240.59;1710206;82;20993;-67
2021/09/27 00:23:24;;;;;;;3.77;2.37;;;;;;;10.42;100.00;100237.86;1709769;83;21063;-66
2021/09/27 00:25:50;;;;;;;5.28;2.40;;;;;;;10.59;100.00;100238.45;1711108;83;21141;-67
2021/09/27 00:28:16;;;;;;;7.87;2.90;;;;;;;10.51;100.00;100235.15;1710240;83;21006;-70
2021/09/27 00:30:43;;;;;;;6.47;2.87;;;;;;;10.69;100.00;100234.25;1709597;83;21745;-66
2021/09/27 00:33:10;;;;;;;6.17;2.87;;;;;;;10.89;100.00;100243.58;1711218;82;21080;-67
2021/09/27 00:35:37;;;;;;;7.03;2.72;;;;;;;10.84;100.00;100241.53;1711583;82;21146;-67
2021/09/27 00:38:04;;;;;;;7.85;2.90;;;;;;;10.88;100.00;100242.78;1710343;83;21006;-74
2021/09/27 00:40:34;;;;;;;5.55;2.90;;;;;;;11.09;100.00;100247.68;1710550;82;21097;-71
2021/09/27 00:43:01;;;;;;;5.55;2.47;;;;;;;10.99;100.00;100257.64;1711046;83;21104;-70
2021/09/27 00:45:31;;;;;;;6.00;2.25;;;;;;;11.07;100.00;100260.12;1711330;82;20913;-69
2021/09/27 00:47:59;;;;;;;5.75;3.10;;;;;;;11.20;100.00;100262.84;1710029;83;21138;-72
2021/09/27 00:50:30;;;;;;;6.30;3.00;;;;;;;11.25;100.00;100260.97;1711268;82;21069;-74
2021/09/27 00:52:56;;;;;;;5.53;2.42;;;;;;;11.20;100.00;100261.53;1710955;83;21095;-67
2021/09/27 00:55:24;;;;;;;6.05;2.67;;;;;;;11.26;100.00;100263.41;1710094;83;21002;-67
2021/09/27 00:57:50;;;;;;;5.33;2.25;;;;;;;11.18;100.00;100267.45;1659329;84;21050;-73
2021/09/27 01:00:20;;;;;;;5.17;2.42;;;;;;;11.15;100.00;100256.08;1711600;82;22585;-73
2021/09/27 01:02:46;;;;;;;4.95;2.55;;;;;;;11.30;100.00;100256.81;1711273;82;21001;-67
2021/09/27 01:05:14;;;;;;;5.50;3.77;;;;;;;11.31;100.00;100253.20;1711128;82;21011;-68
2021/09/27 01:08:07;;;;;;;8.28;2.40;;;;;;;11.68;100.00;100256.52;1711465;82;21081;-66
2021/09/27 01:10:56;;;;;;;4.33;2.83;;;;;;;11.79;100.00;100249.97;1708534;83;21616;-68
2021/09/27 01:13:43;;;;;;;3.70;1.92;;;;;;;11.79;100.00;100249.47;1709961;82;21935;-70
2021/09/27 01:16:38;;;;;;;4.85;2.60;;;;;;;11.65;100.00;100258.20;1676883;83;20922;-69
2021/09/27 01:19:52;;;;;;;5.03;2.90;;;;;;;11.73;100.00;100253.33;1709873;82;21085;-67
2021/09/27 01:22:46;;;;;;;5.40;2.30;;;;;;;11.50;100.00;100267.92;1691011;83;21080;-67
2021/09/27 01:25:44;;;;;;;3.67;2.22;;;;;;;9.61;100.00;100277.75;1710036;83;21046;-67
2021/09/27 01:28:36;;;;;;;9.35;3.47;;;;;;;9.88;100.00;100277.66;1711219;82;21153;-68
2021/09/27 01:31:45;;;;;;;4.87;2.27;;;;;;;10.00;100.00;100282.77;1714308;82;21061;-70
2021/09/27 01:34:43;;;;;;;7.72;2.72;;;;;;;10.02;100.00;100287.28;1709863;83;21092;-67
2021/09/27 01:37:51;;;;;;;5.10;2.47;;;;;;;10.27;100.00;100284.47;1710453;82;20971;-68
2021/09/27 01:40:28;;;;;;;5.12;2.35;;;;;;;10.26;100.00;100286.73;1708947;83;21472;-68
2021/09/27 01:43:03;;;;;;;6.67;2.80;;;;;;;10.28;100.00;100293.39;1710816;82;21235;-69
2021/09/27 01:45:53;;;;;;;5.30;2.60;;;;;;;10.22;100.00;100307.09;1710844;82;21009;-70
2021/09/27 01:48:45;;;;;;;5.40;2.27;;;;;;;9.98;100.00;100302.45;1710859;83;21025;-68
2021/09/27 01:51:29;;;;;;;6.93;2.73;;;;;;;10.02;100.00;100291.69;1709231;83;21591;-68
2021/09/27 01:54:09;;;;;;;4.33;2.83;;;;;;;10.23;100.00;100295.71;1709361;83;21002;-68
2021/09/27 01:56:41;;;;;;;7.10;3.10;;;;;;;10.40;100.00;100301.06;1673606;82;22042;-69
2021/09/27 01:59:18;;;;;;;5.92;2.50;;;;;;;10.40;100.00;100306.77;1710724;82;21049;-68
2021/09/27 02:02:05;;;;;;;4.92;2.58;;;;;;;10.52;100.00;100296.20;1709152;83;21528;-69
2021/09/27 02:04:43;;;;;;;4.58;2.85;;;;;;;10.82;100.00;100298.27;1710771;82;21041;-68
2021/09/27 02:07:10;;;;;;;5.08;2.87;;;;;;;10.97;100.00;100304.75;1712359;83;21042;-67
2021/09/27 02:10:00;;;;;;;5.05;3.12;;;;;;;10.99;100.00;100295.45;1713823;82;21132;-67
2021/09/27 02:12:32;;;;;;;7.15;3.10;;;;;;;11.48;100.00;100299.91;1716248;82;20915;-67
2021/09/27 02:15:09;;;;;;;7.55;3.00;;;;;;;10.68;100.00;100303.00;1711555;83;21050;-67
2021/09/27 02:17:50;;;;;;;3.87;2.58;;;;;;;10.45;100.00;100314.38;1712299;83;21011;-67
2021/09/27 02:20:30;;;;;;;6.20;3.83;;;;;;;10.51;100.00;100309.42;1739715;81;21072;-67
2021/09/27 02:23:20;;;;;;;4.97;2.87;;;;;;;10.68;100.00;100316.04;1737355;81;21802;-68
2021/09/27 02:25:49;;;;;;;8.58;2.58;;;;;;;10.52;100.00;100315.75;1712184;82;21544;-68
2021/09/27 02:28:19;;;;;;;4.78;2.75;;;;;;;10.51;100.00;100314.64;1694599;83;20949;-68
2021/09/27 02:31:14;;;;;;;5.50;2.70;;;;;;;10.40;100.00;100302.86;1712039;83;21099;-68
2021/09/27 02:33:49;;;;;;;7.50;3.30;;;;;;;10.68;100.00;100301.70;1712839;82;21052;-67
2021/09/27 02:36:21;;;;;;;5.35;3.08;;;;;;;10.44;100.00;100313.23;1712584;83;21094;-67
2021/09/27 02:39:11;;;;;;;5.37;2.92;;;;;;;10.22;100.00;100320.12;1712598;81;20971;-66
2021/09/27 02:42:10;;;;;;;4.87;2.70;;;;;;;10.37;100.00;100314.95;1712343;83;20974;-68
2021/09/27 02:44:36;;;;;;;6.58;3.65;;;;;;;10.39;100.00;100321.61;1712900;82;21065;-70
2021/09/27 02:47:05;;;;;;;6.08;3.35;;;;;;;10.45;100.00;100326.11;1692346;83;21002;-68
2021/09/27 02:49:42;;;;;;;5.97;3.10;;;;;;;10.65;100.00;100324.25;1711831;83;21132;-68
2021/09/27 02:52:05;;;;;;;7.00;3.05;;;;;;;10.76;100.00;100324.25;1716246;82;21061;-66
2021/09/27 02:54:37;;;;;;;4.65;2.60;;;;;;;10.70;100.00;100317.98;1713101;83;21479;-68
2021/09/27 02:57:45;;;;;;;5.58;3.20;;;;;;;10.67;100.00;100320.95;1712503;82;21042;-69
2021/09/27 03:00:22;;;;;;;5.58;3.17;;;;;;;10.45;100.00;100334.39;1711888;80;20975;-68
2021/09/27 03:03:06;;;;;;;5.37;3.17;;;;;;;10.14;100.00;100331.93;1700129;82;21158;-67
2021/09/27 03:05:38;;;;;;;3.95;2.40;;;;;;;10.05;100.00;100336.91;1706416;82;20990;-68
2021/09/27 03:08:20;;;;;;;6.25;3.47;;;;;;;10.07;100.00;100333.62;1710240;82;21026;-67
2021/09/27 03:10:58;;;;;;;4.72;2.95;;;;;;;9.56;100.00;100339.92;1701979;82;21016;-68
2021/09/27 03:13:49;;;;;;;5.83;3.00;;;;;;;9.38;100.00;100341.51;1702611;82;21007;-67
2021/09/27 03:16:30;;;;;;;5.93;3.10;;;;;;;9.34;100.00;100343.64;1711216;83;21891;-70
2021/09/27 03:19:05;;;;;;;5.65;2.75;;;;;;;9.41;100.00;100348.48;1672076;84;21031;-71
2021/09/27 03:21:43;;;;;;;5.95;3.10;;;;;;;9.42;100.00;100350.59;1673770;83;21470;-70
2021/09/27 03:25:07;;;;;;;5.00;3.25;;;;;;;9.25;100.00;100339.48;1701782;83;21012;-68
2021/09/27 03:27:48;;;;;;;5.37;3.30;;;;;;;9.21;100.00;100347.31;1748177;80;21501;-68
2021/09/27 03:30:50;;;;;;;5.75;3.33;;;;;;;9.16;100.00;100334.00;1728257;80;21123;-67
2021/09/27 03:33:43;;;;;;;6.62;3.62;;;;;;;9.35;100.00;100340.55;1748839;80;21500;-71
2021/09/27 03:36:43;;;;;;;9.50;3.45;;;;;;;9.41;100.00;100343.27;1678254;83;21076;-63
2021/09/27 03:39:29;;;;;;;5.30;3.60;;;;;;;9.45;100.00;100346.34;1746743;80;21106;-64
2021/09/27 03:42:10;;;;;;;4.87;2.85;;;;;;;9.98;100.00;100354.54;1749964;80;21500;-63
2021/09/27 03:44:57;;;;;;;4.60;2.90;;;;;;;10.73;100.00;100350.22;1747859;80;21117;-63
2021/09/27 03:47:43;;;;;;;5.03;2.60;;;;;;;11.43;100.00;100344.36;1747134;80;20994;-64
2021/09/27 03:50:30;;;;;;;7.03;2.90;;;;;;;12.17;100.00;100343.19;1717160;82;21132;-65
2021/09/27 03:53:13;;;;;;;5.33;3.10;;;;;;;13.07;100.00;100338.80;1747261;80;21404;-62
2021/09/27 03:55:57;;;;;;;5.93;3.03;;;;;;;14.14;100.00;100332.64;1746441;80;21327;-65
2021/09/27 03:58:28;;;;;;;4.97;2.33;;;;;;;15.06;100.00;100330.72;1700963;80;21333;-66
2021/09/27 04:00:59;;;;;;;4.72;2.60;;;;;;;16.16;100.00;100329.80;1735736;80;21369;-75
2021/09/27 04:04:09;;;;;;;4.80;2.70;;;;;;;16.72;100.00;100326.66;1744602;80;21089;-67
2021/09/27 04:06:46;;;;;;;6.20;2.40;;;;;;;17.43;100.00;100319.33;1717981;80;21677;-68
2021/09/27 04:09:48;;;;;;;4.67;2.50;;;;;;;17.97;100.00;100327.98;1747844;80;21085;-66
2021/09/27 04:12:29;;;;;;;6.90;2.53;;;;;;;18.76;100.00;100326.22;1732594;80;21422;-63
2021/09/27 04:15:13;;;;;;;3.67;2.20;;;;;;;19.36;100.00;100320.95;1747067;80;21003;-66
2021/09/27 04:18:11;;;;;;;5.57;2.63;;;;;;;20.13;98.05;100319.74;1743385;80;21063;-69
2021/09/27 04:21:09;;;;;;;3.77;1.87;;;;;;;20.73;85.74;100323.95;1744322;80;20998;-73
2021/09/27 04:24:05;;;;;;;4.47;2.20;;;;;;;21.75;71.26;100323.02;1744090;80;21531;-69
2021/09/27 04:27:16;;;;;;;4.97;2.13;;;;;;;21.82;65.63;100328.08;1746293;79;21146;-67
2021/09/27 04:30:25;;;;;;;3.75;2.10;;;;;;;22.14;60.99;100321.41;1739337;79;21519;-69
2021/09/27 04:33:42;;;;;;;5.27;1.70;;;;;;;22.74;55.45;100320.59;1742376;80;21109;-66
2021/09/27 04:36:26;;;;;;;3.73;2.37;;;;;;;23.23;53.80;100332.13;1746408;80;21079;-75
2021/09/27 04:38:56;;;;;;;3.30;2.00;;;;;;;23.91;51.00;100332.65;1751534;79;21110;-64
2021/09/27 04:41:53;;;;;;;5.57;2.33;;;;;;;24.63;48.13;100333.76;1744079;80;21140;-67
2021/09/27 04:44:37;;;;;;;5.03;2.37;;;;;;;24.63;45.84;100333.76;1745553;80;21438;-65
2021/09/27 04:47:11;;;;;;;4.33;2.50;;;;;;;24.62;44.52;100334.81;1750776;80;20934;-64
2021/09/27 04:50:07;;;;;;;3.60;1.90;;;;;;;24.50;43.95;100339.92;1750319;80;21979;-66
2021/09/27 04:52:51;;;;;;;5.13;2.20;;;;;;;24.16;43.73;100334.97;1731367;80;20975;-67
2021/09/27 04:55:38;;;;;;;4.13;1.70;;;;;;;23.53;44.45;100340.12;1710949;80;21081;-64
2021/09/27 04:58:46;;;;;;;4.07;2.27;;;;;;;22.61;46.35;100340.99;1743178;80;20952;-65
2021/09/27 05:01:41;;;;;;;3.30;1.90;;;;;;;22.10;47.83;100342.88;1743510;80;22776;-63
2021/09/27 05:04:37;;;;;;;4.57;1.87;;;;;;;21.40;50.19;100351.38;1741579;81;21103;-67
2021/09/27 05:07:33;;;;;;;3.47;1.60;;;;;;;20.96;53.18;100344.05;1742278;81;20909;-71
2021/09/27 05:10:25;;;;;;;3.23;1.60;;;;;;;20.93;55.37;100348.00;1746148;81;21153;-64
2021/09/27 05:13:29;;;;;;;3.87;1.50;;;;;;;20.67;58.77;100348.23;1744908;81;21410;-67
2021/09/27 05:16:04;;;;;;;3.87;1.60;;;;;;;19.90;65.56;100345.09;1743023;81;20997;-71
2021/09/27 05:19:04;;;;;;;3.43;1.67;;;;;;;19.88;68.12;100343.98;1745622;81;21154;-62
2021/09/27 05:22:00;;;;;;;4.67;2.00;;;;;;;20.23;68.28;100345.56;1743257;81;21096;-61
2021/09/27 05:24:50;;;;;;;2.37;1.30;;;;;;;20.65;63.20;100339.75;1739217;81;21817;-62
2021/09/27 05:27:34;;;;;;;2.07;1.40;;;;;;;19.86;67.62;100338.16;1736829;81;21131;-61
2021/09/27 05:30:15;;;;;;;2.90;1.60;;;;;;;19.87;68.53;100333.66;1741918;81;21127;-62
2021/09/27 05:33:21;;;;;;;3.65;1.60;;;;;;;19.83;70.42;100338.63;1739256;81;21142;-63
2021/09/27 05:36:12;;;;;;;2.80;1.50;;;;;;;19.60;72.60;100338.25;1740694;81;20941;-63
2021/09/27 05:39:19;;;;;;;3.47;1.60;;;;;;;19.62;72.77;100339.35;1744251;81;21130;-68
2021/09/27 05:42:06;;;;;;;2.73;1.20;;;;;;;19.74;75.04;100342.73;1744294;81;20945;-63
2021/09/27 05:45:01;;;;;;;2.33;1.20;;;;;;;19.89;73.87;100347.46;1742855;81;21495;-65
2021/09/27 05:47:58;;;;;;;3.07;1.60;;;;;;;20.22;69.60;100346.58;1742294;81;21499;-64
2021/09/27 05:50:55;;;;;;;3.93;1.30;;;;;;;20.24;66.26;100345.03;1744995;81;21063;-64
2021/09/27 05:53:52;;;;;;;4.27;1.20;;;;;;;20.03;67.26;100343.41;1744740;81;21047;-64
2021/09/27 05:56:46;;;;;;;2.20;1.23;;;;;;;20.00;67.80;100354.50;1745359;81;22331;-69
2021/09/27 05:59:27;;;;;;;2.83;1.27;;;;;;;19.97;65.64;100336.46;1743280;81;20996;-63
2021/09/27 06:02:15;;;;;;;2.55;1.15;;;;;;;19.89;67.02;100350.11;1744637;81;20997;-64
2021/09/27 06:04:47;;;;;;;3.97;1.50;;;;;;;19.87;69.41;100345.04;1744243;81;20996;-64
2021/09/27 06:07:18;;;;;;;2.73;1.50;;;;;;;19.79;69.26;100345.97;1743213;81;21487;-70
2021/09/27 06:10:22;;;;;;;2.27;1.07;;;;;;;19.96;75.39;100344.09;1743536;81;20989;-66
2021/09/27 06:13:24;;;;;;;3.97;1.23;;;;;;;20.63;72.73;100350.58;1743247;81;20968;-65
2021/09/27 06:15:58;;;;;;;4.27;1.40;;;;;;;21.54;62.60;100359.20;1740468;81;20972;-65
2021/09/27 06:18:47;;;;;;;1.70;0.90;;;;;;;22.26;56.97;100356.52;1744473;81;20863;-71
2021/09/27 06:21:29;;;;;;;2.00;0.97;;;;;;;22.52;53.27;100353.45;1746080;81;20961;-65
2021/09/27 06:24:18;;;;;;;1.90;0.80;;;;;;;22.80;52.24;100352.20;1744139;81;20950;-71
2021/09/27 06:27:11;;;;;;;2.40;1.00;;;;;;;23.58;50.27;100352.61;1743293;81;20996;-66
2021/09/27 06:30:15;;;;;;;2.60;0.77;;;;;;;23.82;47.16;100352.87;1741622;81;20985;-71
2021/09/27 06:32:59;;;;;;;2.17;0.93;;;;;;;23.47;47.25;100351.81;1744301;81;20953;-69
2021/09/27 06:35:28;;;;;;;2.87;1.37;;;;;;;23.44;47.30;100348.34;1739530;81;21871;-66
2021/09/27 06:37:54;;;;;;;1.43;0.83;;;;;;;23.49;45.84;100364.33;1746413;81;21700;-67
2021/09/27 06:40:21;;;;;;;3.90;1.13;;;;;;;23.10;46.43;100360.55;1744633;81;21037;-73
2021/09/27 06:42:48;;;;;;;1.90;0.90;;;;;;;22.40;48.13;100368.81;1745299;81;21291;-66
2021/09/27 06:45:16;;;;;;;1.60;0.80;;;;;;;21.94;48.92;100368.53;1744612;81;20980;-73
2021/09/27 06:47:43;;;;;;;2.00;0.90;;;;;;;21.36;51.32;100375.48;1740938;81;21209;-64
2021/09/27 06:50:11;;;;;;;1.60;0.80;;;;;;;21.19;52.47;100372.11;1743163;80;20933;-65
2021/09/27 06:52:37;;;;;;;1.90;0.90;;;;;;;21.14;53.73;100374.99;1741518;81;21302;-63
2021/09/27 06:55:07;;;;;;;1.73;0.77;;;;;;;21.01;55.24;100376.70;1741122;81;21064;-66
2021/09/27 06:57:33;;;;;;;2.07;1.13;;;;;;;20.50;57.56;100381.41;1743604;81;21035;-66
2021/09/27 06:59:59;;;;;;;2.17;1.10;;;;;;;20.47;60.22;100395.64;1745388;81;21216;-65
2021/09/27 07:02:26;;;;;;;3.70;0.93;;;;;;;20.54;59.37;100392.31;1742726;81;21535;-65
2021/09/27 07:04:52;;;;;;;1.50;0.80;;;;;;;20.78;60.31;100391.55;1741097;81;21051;-65
2021/09/27 07:07:18;;;;;;;2.50;0.93;;;;;;;20.61;60.44;100392.94;1743039;81;21163;-64
2021/09/27 07:09:46;;;;;;;2.27;0.83;;;;;;;20.56;59.30;100400.27;1742502;81;21079;-66
2021/09/27 07:12:12;;;;;;;2.10;1.00;;;;;;;20.55;59.38;100398.69;1734628;81;21138;-66
2021/09/27 07:14:39;;;;;;;2.47;0.93;;;;;;;20.37;60.56;100397.61;1743331;81;21036;-70
2021/09/27 07:17:06;;;;;;;2.07;0.93;;;;;;;20.21;62.81;100395.80;1745526;81;21009;-63
2021/09/27 07:19:32;;;;;;;3.33;1.40;;;;;;;20.01;64.61;100401.08;1742449;81;21056;-65
2021/09/27 07:21:58;;;;;;;4.53;1.20;;;;;;;19.81;71.09;100396.78;1744484;81;21491;-65
2021/09/27 07:24:25;;;;;;;2.83;0.90;;;;;;;19.90;69.17;100405.94;1745895;81;21177;-64
2021/09/27 07:26:51;;;;;;;1.77;0.90;;;;;;;19.71;70.94;100401.92;1745496;81;21033;-71
2021/09/27 07:29:18;;;;;;;3.47;0.90;;;;;;;19.44;70.79;100415.20;1743915;81;21104;-63
2021/09/27 07:31:45;;;;;;;2.27;0.97;;;;;;;19.79;70.63;100406.81;1744886;81;21115;-64
2021/09/27 07:34:12;;;;;;;2.03;1.00;;;;;;;19.98;69.25;100409.50;1745813;81;21526;-62
2021/09/27 07:36:38;;;;;;;2.20;1.00;;;;;;;20.15;66.75;100410.30;1745337;81;21167;-68
2021/09/27 07:39:06;;;;;;;2.80;1.10;;;;;;;20.45;65.29;100412.27;1743535;81;21341;-72
2021/09/27 07:41:33;;;;;;;1.47;0.90;;;;;;;20.69;63.36;100402.31;1742137;81;21005;-65
2021/09/27 07:43:59;;;;;;;3.07;1.17;;;;;;;21.07;60.35;100399.56;1741007;81;21588;-69
2021/09/27 07:46:26;;;;;;;2.40;0.67;;;;;;;21.36;59.41;100398.81;1744785;81;21007;-63
2021/09/27 07:48:52;;;;;;;1.33;0.63;;;;;;;21.61;57.20;100404.88;1740874;81;21132;-64
2021/09/27 07:51:20;;;;;;;1.53;0.73;;;;;;;21.45;55.69;100401.03;1729521;81;21093;-64
2021/09/27 07:53:46;;;;;;;2.87;0.90;;;;;;;21.12;57.55;100410.22;1729351;81;21050;-62
2021/09/27 07:56:13;;;;;;;2.80;0.90;;;;;;;20.80;59.47;100409.34;1729490;81;21557;-63
2021/09/27 07:58:39;;;;;;;1.67;0.50;;;;;;;21.03;61.10;100411.72;1730195;81;21089;-69
2021/09/27 08:01:06;;;;;;;2.50;0.80;;;;;;;20.76;61.74;100413.00;1726235;81;21182;-64
2021/09/27 08:03:33;;;;;;;2.53;0.97;;;;;;;21.29;59.28;100411.96;1742256;80;20880;-64
2021/09/27 08:05:59;;;;;;;2.90;0.90;;;;;;;21.46;57.63;100419.86;1749076;80;21105;-64
2021/09/27 08:08:26;;;;;;;2.37;0.80;;;;;;;21.62;55.54;100410.45;1746518;82;21335;-69
2021/09/27 08:10:53;;;;;;;1.97;0.80;;;;;;;21.11;58.04;100411.80;1744392;82;21564;-64
2021/09/27 08:13:20;;;;;;;2.10;0.80;;;;;;;21.08;58.74;100418.39;1746110;81;22223;-63
2021/09/27 08:15:51;;;;;;;1.83;0.63;;;;;;;21.35;57.30;100414.45;1712804;82;21487;-64
2021/09/27 08:18:19;;;;;;;1.75;0.80;;;;;;;21.24;59.45;100416.70;1692628;83;21587;-65
2021/09/27 08:20:53;;;;;;;2.07;1.10;;;;;;;21.52;57.89;100415.69;1700146;84;21569;-64
2021/09/27 08:23:21;;;;;;;3.93;0.93;;;;;;;21.71;57.24;100414.00;1695578;84;20948;-70
2021/09/27 08:25:50;;;;;;;5.10;2.30;;;;;;;21.99;56.25;100412.34;1696683;84;21157;-65
2021/09/27 08:28:19;;;;;;;4.13;1.60;;;;;;;22.24;54.11;100413.62;1692962;84;20996;-64
2021/09/27 08:30:54;;;;;;;3.63;1.07;;;;;;;22.43;54.22;100411.33;1709648;82;21022;-64
2021/09/27 08:33:21;;;;;;;2.47;0.80;;;;;;;22.71;52.84;100421.55;1669945;83;21037;-65
2021/09/27 08:35:52;;;;;;;2.93;0.93;;;;;;;22.81;50.21;100412.30;1707962;83;22149;-64
2021/09/27 08:38:20;;;;;;;2.20;0.67;;;;;;;23.02;49.10;100417.70;1706227;84;21139;-66
2021/09/27 08:41:05;;;;;;;5.40;1.10;;;;;;;22.58;48.77;100417.52;1702397;84;20928;-64
2021/09/27 08:43:43;;;;;;;1.63;0.50;;;;;;;22.29;49.07;100415.77;1704991;84;21512;-64
2021/09/27 08:46:22;;;;;;;1.57;0.70;;;;;;;22.00;50.04;100411.81;1705406;83;20972;-69
2021/09/27 08:49:15;;;;;;;1.87;0.70;;;;;;;22.28;50.33;100409.39;1686994;83;21003;-65
2021/09/27 08:51:43;;;;;;;2.23;0.80;;;;;;;22.17;51.08;100421.00;1705095;84;21615;-64
2021/09/27 08:54:15;;;;;;;2.20;0.90;;;;;;;22.62;51.34;100412.49;1703604;82;21046;-66
2021/09/27 08:57:01;;;;;;;1.30;0.60;;;;;;;22.89;49.12;100416.31;1700590;82;21540;-65
2021/09/27 09:00:07;;;;;;;2.47;0.70;;;;;;;23.07;47.85;100417.73;1704975;84;21071;-64
2021/09/27 09:02:58;;;;;;;1.07;0.53;;;;;;;23.00;47.20;100417.98;1709611;82;21117;-67
2021/09/27 09:05:48;;;;;;;1.37;0.50;;;;;;;23.39;46.09;100414.86;1718695;82;20939;-66
2021/09/27 09:08:44;;;;;;;1.60;0.70;;;;;;;23.62;45.95;100418.08;1718344;82;20986;-64
2021/09/27 09:11:32;;;;;;;2.07;0.60;;;;;;;23.77;45.52;100415.45;1724998;82;20994;-68
2021/09/27 09:14:39;;;;;;;2.57;1.10;;;;;;;24.35;43.17;100413.22;1718580;82;21066;-63
2021/09/27 09:17:17;;;;;;;2.63;0.57;;;;;;;24.27;42.86;100410.58;1713816;82;20919;-64
2021/09/27 09:19:43;;;;;;;2.20;0.70;;;;;;;24.46;42.21;100408.16;1708417;82;21133;-65
2021/09/27 09:22:36;;;;;;;2.80;0.60;;;;;;;24.53;41.71;100413.75;1722132;82;20994;-70
2021/09/27 09:25:09;;;;;;;4.73;0.70;;;;;;;25.04;40.94;100402.84;1723182;82;20966;-65
2021/09/27 09:27:38;;;;;;;1.43;0.70;;;;;;;24.98;41.03;100409.55;1714172;82;21047;-70
2021/09/27 09:30:07;;;;;;;1.60;0.90;;;;;;;25.20;39.53;100407.86;1707986;82;21017;-67
2021/09/27 09:32:34;;;;;;;1.37;0.60;;;;;;;25.07;40.05;100410.30;1708088;82;21126;-64
2021/09/27 09:35:27;;;;;;;2.73;0.63;;;;;;;25.10;40.30;100424.45;1706335;82;21006;-66
2021/09/27 09:38:04;;;;;;;1.23;0.60;;;;;;;25.10;39.44;100419.12;1702349;83;21022;-65
2021/09/27 09:40:38;;;;;;;2.93;0.60;;;;;;;24.81;39.52;100418.42;1688094;82;20939;-64
2021/09/27 09:43:14;;;;;;;2.27;0.97;;;;;;;24.74;40.27;100419.28;1687590;82;21090;-69
2021/09/27 09:45:45;;;;;;;1.77;0.67;;;;;;;24.31;40.90;100430.03;1697923;82;21148;-65
2021/09/27 09:48:25;;;;;;;1.43;0.43;;;;;;;24.48;40.54;100425.23;1701278;83;20900;-65
2021/09/27 09:50:57;;;;;;;2.17;0.90;;;;;;;24.14;41.01;100419.69;1696611;82;20991;-65
2021/09/27 09:53:33;;;;;;;2.60;0.60;;;;;;;24.15;41.17;100423.40;1702824;83;21095;-64
2021/09/27 09:56:04;;;;;;;1.93;0.57;;;;;;;24.02;41.19;100432.75;1711057;82;21300;-65
2021/09/27 09:58:43;;;;;;;1.50;0.60;;;;;;;24.30;40.90;100430.56;1714316;83;21793;-71
2021/09/27 10:01:30;;;;;;;1.40;0.63;;;;;;;24.13;41.43;100429.55;1708369;82;21003;-69
2021/09/27 10:04:13;;;;;;;1.10;0.50;;;;;;;24.37;40.91;100425.75;1691665;82;20999;-66
2021/09/27 10:06:46;;;;;;;1.23;0.60;;;;;;;24.28;41.04;100424.70;1713522;81;21145;-65
2021/09/27 10:09:33;;;;;;;1.63;0.60;;;;;;;24.35;40.59;100428.41;1714298;81;20990;-66
2021/09/27 10:12:09;;;;;;;1.67;0.50;;;;;;;24.40;40.85;100425.79;1706712;81;22153;-65
2021/09/27 10:14:41;;;;;;;1.17;0.60;;;;;;;24.28;41.19;100426.85;1714467;83;20908;-65
2021/09/27 10:17:32;;;;;;;1.22;0.68;;;;;;;24.38;40.86;100426.02;1715613;81;20980;-65
2021/09/27 10:20:18;;;;;;;1.20;0.50;;;;;;;23.59;41.78;100431.91;1724076;81;21269;-64
2021/09/27 10:22:55;;;;;;;1.77;0.80;;;;;;;23.44;42.57;100429.49;1716384;81;21049;-71
2021/09/27 10:25:36;;;;;;;1.57;0.60;;;;;;;23.15;43.02;100433.71;1707997;83;21155;-66
2021/09/27 10:28:04;;;;;;;1.15;0.50;;;;;;;23.02;42.83;100441.63;1702132;81;20984;-65
2021/09/27 10:30:48;;;;;;;1.13;0.63;;;;;;;23.13;42.96;100439.81;1713510;81;21078;-68
2021/09/27 10:33:21;;;;;;;1.57;0.70;;;;;;;23.10;43.27;100440.33;1716803;82;21019;-65
2021/09/27 10:35:59;;;;;;;1.50;0.60;;;;;;;23.11;43.70;100440.08;1692773;82;20995;-70
2021/09/27 10:38:53;;;;;;;1.47;0.40;;;;;;;23.52;42.96;100431.66;1692596;82;21128;-66
2021/09/27 10:41:27;;;;;;;1.10;0.60;;;;;;;23.91;42.50;100431.16;1755515;80;20928;-70
2021/09/27 10:43:57;;;;;;;1.47;0.47;;;;;;;24.17;41.66;100422.61;1755628;80;21105;-67
2021/09/27 10:46:34;;;;;;;1.00;0.57;;;;;;;24.22;41.37;100427.13;1757108;79;21057;-64
2021/09/27 10:48:59;;;;;;;1.30;0.70;;;;;;;24.04;41.27;100434.59;1759166;79;21096;-71
2021/09/27 10:51:32;;;;;;;1.60;0.60;;;;;;;24.06;41.20;100441.54;1757840;79;20939;-72
2021/09/27 10:54:06;;;;;;;;;;;;;;;23.89;41.37;100445.25;1752418;80;21053;-65
2021/09/27 10:56:37;;;;;;;1.30;0.50;;;;;;;23.71;40.86;100437.80;1752328;79;20190;-66
2021/09/27 10:59:13;;;;;;;1.07;0.50;;;;;;;22.76;42.48;100449.47;1747761;80;21599;-68
2021/09/27 11:01:52;;;;;;;0.87;0.40;;;;;;;22.22;43.51;100452.89;1718043;81;21127;-65
2021/09/27 11:04:23;;;;;;;2.27;0.60;;;;;;;21.85;44.35;100451.77;1724756;81;21151;-66
2021/09/27 11:06:55;;;;;;;2.47;0.65;;;;;;;21.89;44.89;100448.09;1744194;81;21050;-67
2021/09/27 11:09:34;;;;;;;2.37;0.70;;;;;;;22.04;44.59;100447.41;1745155;81;22143;-65
2021/09/27 11:12:12;;;;;;;1.50;0.60;;;;;;;21.55;45.65;100451.50;1751209;81;21130;-66
2021/09/27 11:14:50;;;;;;;1.00;0.50;;;;;;;21.58;46.13;100459.77;1752248;81;20976;-66
2021/09/27 11:17:42;;;;;;;1.83;0.60;;;;;;;21.99;46.28;100454.02;1751297;80;21017;-67
2021/09/27 11:20:37;;;;;;;3.47;1.10;;;;;;;21.11;47.12;100460.84;1753132;81;21482;-68
2021/09/27 11:23:20;;;;;;;3.10;0.90;;;;;;;20.61;49.45;100456.51;1746524;81;20996;-65
2021/09/27 11:26:22;;;;;;;1.93;0.97;;;;;;;20.88;50.34;100456.06;1744343;81;21124;-72
2021/09/27 11:28:56;;;;;;;4.12;0.62;;;;;;;21.21;49.22;100463.58;1751404;81;21103;-66
2021/09/27 11:31:40;;;;;;;3.13;0.70;;;;;;;21.31;49.03;100466.36;1752858;81;21307;-73
2021/09/27 11:34:38;;;;;;;1.57;0.70;;;;;;;21.21;48.86;100459.61;1754144;81;21039;-66
2021/09/27 11:37:21;;;;;;;1.53;0.70;;;;;;;20.92;50.02;100466.97;1718142;82;22201;-66
2021/09/27 11:40:08;;;;;;;4.15;0.70;;;;;;;20.51;50.61;100463.78;1713926;82;21034;-66
2021/09/27 11:42:49;;;;;;;2.63;1.00;;;;;;;20.64;51.18;100470.56;1737484;81;21021;-66
2021/09/27 11:45:41;;;;;;;3.95;1.00;;;;;;;20.47;51.50;100472.42;1737138;81;21895;-65
2021/09/27 11:48:42;;;;;;;2.93;0.70;;;;;;;20.28;52.96;100475.33;1747769;81;21588;-66
2021/09/27 11:51:17;;;;;;;1.67;0.80;;;;;;;19.83;56.00;100476.72;1750416;81;21016;-65
2021/09/27 11:54:19;;;;;;;1.10;0.60;;;;;;;19.75;56.79;100475.26;1738686;81;21708;-64
2021/09/27 11:57:17;;;;;;;1.30;0.70;;;;;;;19.96;57.54;100471.09;1733602;81;21415;-73
2021/09/27 11:59:56;;;;;;;1.93;0.77;;;;;;;20.10;56.27;100460.48;1740972;81;21127;-65
2021/09/27 12:02:37;;;;;;;1.60;0.77;;;;;;;20.06;57.42;100463.33;1751569;81;21076;-73
2021/09/27 12:05:33;;;;;;;;;;;;;;;20.24;57.67;100469.44;1745906;80;20955;-66
2021/09/27 12:08:26;;;;;;;1.53;0.67;;;;;;;20.05;59.94;100471.52;1742467;80;20173;-66
2021/09/27 12:11:08;;;;;;;1.33;0.60;;;;;;;20.13;59.21;100467.95;1746817;80;21042;-66
2021/09/27 12:13:46;;;;;;;1.80;0.57;;;;;;;20.16;59.38;100469.33;1745008;80;22345;-66
2021/09/27 12:16:28;;;;;;;2.90;0.90;;;;;;;20.35;58.95;100476.49;1742253;80;21066;-64
2021/09/27 12:19:02;;;;;;;2.95;0.60;;;;;;;20.09;59.41;100477.41;1745445;80;23298;-65
2021/09/27 12:21:41;;;;;;;4.00;0.87;;;;;;;20.15;58.04;100476.96;1746526;80;21089;-64
2021/09/27 12:24:19;;;;;;;1.97;0.70;;;;;;;20.21;58.35;100476.01;1743248;80;21069;-65